createdAt,value
2022-09-28T00:01:19.350Z,13.55
2022-09-28T00:06:27.415Z,13.57
2022-09-28T00:11:31.347Z,13.56
2022-09-28T00:16:38.602Z,13.60
2022-09-28T00:21:43.187Z,13.60
2022-09-28T00:26:52.481Z,13.65
2022-09-28T00:32:05.371Z,13.66
2022-09-28T00:37:10.463Z,13.66
2022-09-28T00:42:20.900Z,13.66
2022-09-28T00:47:55.135Z,13.62
2022-09-28T00:53:05.209Z,13.64
2022-09-28T00:58:16.501Z,13.64
2022-09-28T01:03:20.347Z,13.61
2022-09-28T01:08:27.916Z,13.51
2022-09-28T01:13:32.963Z,13.31
2022-09-28T01:18:43.978Z,13.14
2022-09-28T01:23:55.996Z,13.00
2022-09-28T01:29:16.859Z,12.91
2022-09-28T01:34:45.009Z,12.82
2022-09-28T01:39:52.724Z,12.78
2022-09-28T01:45:04.126Z,12.69
2022-09-28T01:50:14.191Z,12.56
2022-09-28T01:55:28.666Z,12.41
2022-09-28T02:00:35.399Z,12.38
2022-09-28T02:05:43.376Z,12.37
2022-09-28T02:11:11.570Z,12.34
2022-09-28T02:16:22.540Z,12.23
2022-09-28T02:21:34.270Z,12.04
2022-09-28T02:26:42.187Z,11.62
2022-09-28T02:31:45.477Z,11.16
2022-09-28T02:36:49.118Z,10.83
2022-09-28T02:42:04.407Z,10.64
2022-09-28T02:47:57.501Z,10.53
2022-09-28T02:53:37.559Z,10.45
2022-09-28T02:58:58.179Z,10.40
2022-09-28T03:04:12.650Z,10.35
2022-09-28T03:09:22.002Z,10.32
2022-09-28T03:14:25.314Z,10.30
2022-09-28T03:19:32.662Z,10.30
2022-09-28T03:24:36.026Z,10.30
2022-09-28T03:29:39.645Z,10.29
2022-09-28T03:34:42.956Z,10.27
2022-09-28T03:39:46.165Z,10.28
2022-09-28T03:44:49.373Z,10.30
2022-09-28T03:49:52.685Z,10.27
2022-09-28T03:54:55.993Z,10.29
2022-09-28T03:59:59.210Z,10.30
2022-09-28T04:05:03.027Z,10.27
2022-09-28T04:10:06.950Z,10.25
2022-09-28T04:15:10.879Z,10.26
2022-09-28T04:20:14.904Z,10.24
2022-09-28T04:25:18.010Z,10.24
2022-09-28T04:30:22.243Z,10.24
2022-09-28T04:35:25.456Z,10.26
2022-09-28T04:40:28.919Z,10.27
2022-09-28T04:45:32.354Z,10.30
2022-09-28T04:50:35.690Z,10.30
2022-09-28T04:55:39.307Z,10.31
2022-09-28T05:00:42.761Z,10.35
2022-09-28T05:05:46.656Z,10.36
2022-09-28T05:11:01.527Z,10.43
2022-09-28T05:16:05.698Z,10.45
2022-09-28T05:21:13.782Z,10.50
2022-09-28T05:26:17.409Z,10.61
2022-09-28T05:31:20.786Z,10.58
2022-09-28T05:36:27.097Z,10.60
2022-09-28T05:41:30.301Z,10.57
2022-09-28T05:46:33.510Z,10.56
2022-09-28T05:51:36.716Z,10.65
2022-09-28T05:56:39.926Z,10.72
2022-09-28T06:01:43.281Z,10.72
2022-09-28T06:06:46.551Z,10.72
2022-09-28T06:11:50.683Z,10.74
2022-09-28T06:16:54.124Z,10.86
2022-09-28T06:21:59.259Z,10.96
2022-09-28T06:27:02.865Z,11.04
2022-09-28T06:32:07.607Z,11.12
2022-09-28T06:37:10.918Z,11.25
2022-09-28T06:42:15.969Z,11.30
2022-09-28T06:47:19.281Z,11.42
2022-09-28T06:52:22.489Z,11.41
2022-09-28T06:57:25.901Z,11.41
2022-09-28T07:02:29.383Z,11.58
2022-09-28T07:07:33.345Z,11.65
2022-09-28T07:12:36.857Z,11.55
2022-09-28T07:17:54.152Z,11.62
2022-09-28T07:23:16.081Z,11.67
2022-09-28T07:28:22.015Z,11.69
2022-09-28T07:33:30.242Z,11.70
2022-09-28T07:38:33.960Z,11.48
2022-09-28T07:43:39.889Z,11.24
2022-09-28T07:48:45.993Z,11.17
2022-09-28T07:53:49.526Z,11.18
2022-09-28T07:58:52.939Z,11.18
2022-09-28T08:03:56.558Z,11.17
2022-09-28T08:09:02.018Z,11.07
2022-09-28T08:14:05.329Z,10.97
2022-09-28T08:19:08.745Z,10.87
2022-09-28T08:24:14.343Z,10.93
2022-09-28T08:29:17.820Z,10.96
2022-09-28T08:34:21.236Z,11.01
2022-09-28T08:39:24.546Z,11.20
2022-09-28T08:44:39.579Z,11.48
2022-09-28T08:49:47.620Z,11.73
2022-09-28T08:55:02.330Z,11.78
2022-09-28T09:00:10.950Z,11.93
2022-09-28T09:05:24.315Z,12.16
2022-09-28T09:10:51.075Z,12.50
2022-09-28T09:16:15.749Z,12.58
2022-09-28T09:21:37.731Z,12.69
2022-09-28T09:26:41.964Z,12.89
2022-09-28T09:32:20.811Z,13.13
2022-09-28T09:37:34.875Z,13.19
2022-09-28T09:42:40.849Z,13.47
2022-09-28T09:47:58.494Z,13.67
2022-09-28T09:53:22.077Z,14.18
2022-09-28T09:58:49.043Z,14.79
2022-09-28T10:03:53.092Z,15.07
2022-09-28T10:09:04.986Z,14.79
2022-09-28T10:14:17.516Z,14.51
2022-09-28T10:19:31.370Z,14.47
2022-09-28T10:24:45.532Z,14.61
2022-09-28T10:30:00.415Z,14.85
2022-09-28T10:35:19.097Z,14.81
2022-09-28T10:40:45.017Z,14.78
2022-09-28T10:45:50.323Z,14.67
2022-09-28T10:51:09.057Z,14.54
2022-09-28T10:56:23.104Z,14.32
2022-09-28T11:01:31.437Z,14.17
2022-09-28T11:06:40.300Z,14.07
2022-09-28T11:11:44.519Z,13.96
2022-09-28T11:16:47.583Z,13.68
2022-09-28T11:21:51.346Z,13.50
2022-09-28T11:27:00.433Z,13.32
2022-09-28T11:32:06.877Z,13.23
2022-09-28T11:37:16.227Z,13.36
2022-09-28T11:42:54.913Z,13.69
2022-09-28T11:48:03.239Z,14.19
2022-09-28T11:53:27.600Z,14.32
2022-09-28T11:58:35.623Z,14.45
2022-09-28T12:03:48.953Z,14.51
2022-09-28T12:09:01.140Z,14.60
2022-09-28T12:14:10.746Z,14.81
2022-09-28T12:19:33.719Z,14.92
2022-09-28T12:24:42.762Z,15.30
2022-09-28T12:29:49.045Z,15.46
2022-09-28T12:34:52.456Z,15.30
2022-09-28T12:40:21.203Z,15.25
2022-09-28T12:46:13.733Z,15.23
2022-09-28T12:51:23.283Z,15.54
2022-09-28T12:56:29.261Z,15.56
2022-09-28T13:01:47.444Z,15.55
2022-09-28T13:06:59.227Z,15.48
2022-09-28T13:12:25.987Z,15.46
2022-09-28T13:17:56.534Z,15.47
2022-09-28T13:23:21.148Z,15.52
2022-09-28T13:28:27.496Z,16.05
2022-09-28T13:33:51.530Z,16.53
2022-09-28T13:38:57.091Z,16.68
2022-09-28T13:44:38.405Z,16.67
2022-09-28T13:50:04.125Z,16.73
2022-09-28T13:55:32.996Z,17.13
2022-09-28T14:01:02.359Z,17.12
2022-09-28T14:06:23.704Z,17.05
2022-09-28T14:11:34.578Z,16.91
2022-09-28T14:16:39.504Z,16.65
2022-09-28T14:22:17.758Z,16.33
2022-09-28T14:27:45.951Z,16.26
2022-09-28T14:33:00.087Z,16.30
2022-09-28T14:38:31.486Z,17.89
2022-09-28T14:43:35.002Z,20.72
2022-09-28T14:48:49.189Z,20.01
2022-09-28T14:54:01.282Z,19.93
2022-09-28T14:59:07.476Z,23.51
2022-09-28T15:04:13.427Z,23.62
2022-09-28T15:09:30.569Z,26.03
2022-09-28T15:14:42.891Z,29.71
2022-09-28T15:20:09.757Z,30.31
2022-09-28T15:25:16.854Z,30.04
2022-09-28T15:30:33.475Z,28.75
2022-09-28T15:35:38.967Z,27.40
2022-09-28T15:40:42.587Z,29.32
2022-09-28T15:46:03.130Z,29.62
2022-09-28T15:51:13.045Z,26.48
2022-09-28T15:56:16.963Z,24.06
2022-09-28T16:01:36.835Z,22.16
2022-09-28T16:06:41.918Z,20.38
2022-09-28T16:11:45.223Z,19.10
2022-09-28T16:16:52.834Z,17.88
2022-09-28T16:21:59.220Z,16.86
2022-09-28T16:27:07.037Z,16.01
2022-09-28T16:32:25.707Z,15.44
2022-09-28T16:37:33.134Z,14.86
2022-09-28T16:42:38.050Z,14.46
2022-09-28T16:47:41.678Z,14.16
2022-09-28T16:53:03.573Z,13.86
2022-09-28T16:58:07.248Z,13.57
2022-09-28T17:03:14.919Z,13.39
2022-09-28T17:08:22.412Z,13.22
2022-09-28T17:13:34.894Z,13.09
2022-09-28T17:18:39.954Z,12.89
2022-09-28T17:23:44.587Z,12.73
2022-09-28T17:28:47.898Z,12.66
2022-09-28T17:33:52.337Z,12.62
2022-09-28T17:38:56.888Z,12.49
2022-09-28T17:44:03.360Z,12.39
2022-09-28T17:49:10.049Z,12.35
2022-09-28T17:54:13.973Z,12.32
2022-09-28T17:59:19.263Z,12.26
2022-09-28T18:04:50.204Z,12.22
2022-09-28T18:09:46.331Z,12.17
2022-09-28T18:14:49.852Z,12.11
2022-09-28T18:19:53.096Z,11.96
2022-09-28T18:24:56.674Z,11.83
2022-09-28T18:30:00.598Z,11.73
2022-09-28T18:35:08.987Z,11.66
2022-09-28T18:40:15.619Z,11.56
2022-09-28T18:45:19.337Z,11.52
2022-09-28T18:50:22.648Z,11.48
2022-09-28T18:55:26.884Z,11.46
2022-09-28T19:00:30.396Z,11.41
2022-09-28T19:05:35.402Z,11.40
2022-09-28T19:10:38.757Z,11.41
2022-09-28T19:15:42.126Z,11.40
2022-09-28T19:20:45.821Z,11.36
2022-09-28T19:25:49.307Z,11.37
2022-09-28T19:30:57.563Z,11.42
2022-09-28T19:36:03.754Z,11.44
2022-09-28T19:41:39.558Z,11.44
2022-09-28T19:46:45.796Z,11.42
2022-09-28T19:52:14.968Z,11.42
2022-09-28T19:57:19.932Z,11.40
2022-09-28T20:02:23.390Z,11.39
2022-09-28T20:07:26.652Z,11.38
2022-09-28T20:12:30.168Z,11.32
2022-09-28T20:17:33.589Z,11.20
2022-09-28T20:22:37.404Z,11.09
2022-09-28T20:27:40.716Z,10.91
2022-09-28T20:32:48.729Z,10.75
2022-09-28T20:37:53.173Z,10.66
2022-09-28T20:43:00.594Z,10.57
2022-09-28T20:48:06.537Z,10.47
2022-09-28T20:53:09.966Z,10.38
2022-09-28T20:58:13.281Z,10.33
2022-09-28T21:03:16.893Z,10.26
2022-09-28T21:08:24.165Z,10.14
2022-09-28T21:13:27.510Z,10.11
2022-09-28T21:18:31.025Z,10.11
2022-09-28T21:23:36.084Z,10.14
2022-09-28T21:28:40.208Z,10.20
2022-09-28T21:33:43.518Z,10.26
2022-09-28T21:38:47.033Z,10.19
2022-09-28T21:43:50.350Z,10.08
2022-09-28T21:48:54.173Z,10.03
2022-09-28T21:53:57.784Z,10.03
2022-09-28T21:59:01.608Z,9.98
2022-09-28T22:04:04.921Z,10.03
2022-09-28T22:09:08.336Z,10.08
2022-09-28T22:14:11.769Z,10.12
2022-09-28T22:19:15.774Z,10.13
2022-09-28T22:24:19.200Z,10.17
2022-09-28T22:29:22.701Z,10.21
2022-09-28T22:34:28.265Z,10.24
2022-09-28T22:39:36.796Z,10.29
2022-09-28T22:44:41.131Z,10.32
2022-09-28T22:49:44.442Z,10.32
2022-09-28T22:54:50.110Z,10.33
2022-09-28T22:59:53.625Z,10.29
2022-09-28T23:04:56.939Z,10.25
2022-09-28T23:10:00.965Z,10.24
2022-09-28T23:15:05.403Z,10.21
2022-09-28T23:20:09.196Z,10.20
2022-09-28T23:25:12.638Z,10.25
2022-09-28T23:30:17.714Z,10.26
2022-09-28T23:35:20.999Z,10.28
2022-09-28T23:40:24.350Z,10.30
2022-09-28T23:45:27.928Z,10.26
2022-09-28T23:50:31.238Z,10.19
2022-09-28T23:55:34.651Z,10.20
